アスタナ の空港の天気 - METARとTAF

アスタナ国際空港 ( UACC / TSE ) - カザフスタン アスタナ
飛行場実況気象(Metar)
観測時間08/17 09:00 QYZT (08/17 03:00 UTC)
風向・風速西北西 4m/s
視程10km以上
天気現象
なし
気温14℃
湿度51%
気圧1021hPa
METARUACC 170300Z 29004MPS CAVOK 14/04 Q1021 R22/0///70 NOSIG RMK QFE734/0979
過去の天気等 Google飛行場航空写真 Wunderground天気予報

過去48時間のMETAR

飛行場予報(TAF)
発表時間: 8/17 06:30 QYZT (8/17 00:30 UTC)
予報対象時間: 17日6時 QYZT ~ 18日6時 QYZT
風向・風速北 6m/s
視程10km以上
全天の4割程度の積乱雲 雲底高度 1,220m
全天の8割程度の雲 雲底高度 3,050m
17日19時 QYZT ~ 18日6時 QYZT に一時的に
天気現象弱いしゅう雨
全天の8割程度の積乱雲 雲底高度 910m
TAF AMD UACC 170030Z 1700/1724 36006MPS 9999 SCT040CB BKN100 TX24/1710Z TN11/1723Z
TEMPO 1713/1724 -SHRA BKN030CB